WetterOnline ( http://www.wetteronline.de )

Wetter aktuell Herborn

Aktuelles Wetter: Bad Marienberg (555m)

6-stündlich | Neueste Meldungen
Ortszeit Temperatur Wetter
Mo, 18.02. 13:00 10.7° C fast wolkenlos
Mo, 18.02. 7:00 5.7° C fast wolkenlos
Mo, 18.02. 1:00 6.4° C wolkenlos
So, 17.02. 19:00 8.0° C leicht bewölkt
So, 17.02. 13:00 10.0° C fast wolkenlos
So, 17.02. 7:00 4.2° C fast wolkenlos
So, 17.02. 1:00 5.6° C wolkenlos
Sa, 16.02. 19:00 7.9° C wolkenlos
Ortszeit Temperatur Wetter
Mo, 18.02. 16:30 11.1° C wolkenlos
Mo, 18.02. 16:20 11.1° C wolkenlos
Mo, 18.02. 16:10 11.2° C wolkenlos
Mo, 18.02. 16:00 10.9° C fast wolkenlos
Mo, 18.02. 15:50 10.9° C fast wolkenlos
Mo, 18.02. 15:40 11.1° C leicht bewölkt
Mo, 18.02. 15:30 11.3° C leicht bewölkt
Mo, 18.02. 15:00 11.8° C leicht bewölkt
Mo, 18.02. 14:30 11.5° C fast wolkenlos
Mo, 18.02. 14:00 11.8° C wolkenlos
Mo, 18.02. 13:30 11.3° C wolkenlos
Ortszeit Relative Feuchte Sichtweite
Mo, 18.02. 13:00 45% 35 km
Mo, 18.02. 7:00 54% 60 km
Mo, 18.02. 1:00 59% 45 km
So, 17.02. 19:00 53% 40 km
So, 17.02. 13:00 47% 29 km
So, 17.02. 7:00 73% 20 km
So, 17.02. 1:00 74% 23 km
Sa, 16.02. 19:00 61% 30 km
Ortszeit Relative Feuchte Sichtweite
Mo, 18.02. 16:30 46% 50 km
Mo, 18.02. 16:20 46% -
Mo, 18.02. 16:10 43% -
Mo, 18.02. 16:00 43% 35 km
Mo, 18.02. 15:50 43% -
Mo, 18.02. 15:40 42% -
Mo, 18.02. 15:30 44% 50 km
Mo, 18.02. 15:00 42% 55 km
Mo, 18.02. 14:30 46% 50 km
Mo, 18.02. 14:00 45% 40 km
Mo, 18.02. 13:30 44% 45 km
Ortszeit Niederschlagsmenge Niederschlagsart
Mo, 18.02. 13:00 0.0 l/m2 in 6 Std. -
Mo, 18.02. 7:00 0.0 l/m2 in 12 Std. -
Mo, 18.02. 1:00 0.0 l/m2 in 6 Std. -
So, 17.02. 19:00 0.0 l/m2 in 12 Std. -
So, 17.02. 13:00 0.0 l/m2 in 6 Std. -
So, 17.02. 7:00 0.0 l/m2 in 12 Std. -
So, 17.02. 1:00 0.0 l/m2 in 6 Std. -
Sa, 16.02. 19:00 0.0 l/m2 in 12 Std. -
Ortszeit Niederschlagsmenge Niederschlagsart
Mo, 18.02. 16:30 0.0 l/m2 in 1 Std. -
Mo, 18.02. 16:20 keine Meldung -
Mo, 18.02. 16:10 keine Meldung -
Mo, 18.02. 16:00 0.0 l/m2 in 1 Std. -
Mo, 18.02. 15:50 keine Meldung -
Mo, 18.02. 15:40 keine Meldung -
Mo, 18.02. 15:30 0.0 l/m2 in 1 Std. -
Mo, 18.02. 15:00 0.0 l/m2 in 1 Std. -
Mo, 18.02. 14:30 0.0 l/m2 in 1 Std. -
Mo, 18.02. 14:00 0.0 l/m2 in 1 Std. -
Mo, 18.02. 13:30 0.0 l/m2 in 1 Std. -
Ortszeit Stärke Spitze Richtung
km/h Bft. km/h Grad Sektor
Mo, 18.02. 13:00 11 2 18 160° S
Mo, 18.02. 7:00 6 1 11 150° SO
Mo, 18.02. 1:00 7 2 18 140° SO
So, 17.02. 19:00 9 2 26 160° S
So, 17.02. 13:00 18 3 29 170° S
So, 17.02. 7:00 13 3 15 140° SO
So, 17.02. 1:00 6 1 13 130° SO
Sa, 16.02. 19:00 9 2 19 140° SO
Ortszeit Stärke Spitze Richtung
km/h Bft. km/h Grad Sektor
Mo, 18.02. 16:30 22 4 32 160° S
Mo, 18.02. 16:20 22 4 - 160° S
Mo, 18.02. 16:10 18 3 - 170° S
Mo, 18.02. 16:00 17 3 26 160° S
Mo, 18.02. 15:50 17 3 - 160° S
Mo, 18.02. 15:40 18 3 - 150° SO
Mo, 18.02. 15:30 14 3 25 140° SO
Mo, 18.02. 15:00 15 3 22 160° S
Mo, 18.02. 14:30 13 3 22 150° SO
Mo, 18.02. 14:00 14 3 25 180° S
Mo, 18.02. 13:30 13 3 20 180° S
Ortszeit Untergrenze Bedeckung Gattung
total tief tief mittel hoch
Mo, 18.02. 13:00 6000 m 1/8 1/8 - - -
Mo, 18.02. 7:00 9000 m 1/8 0/8 - - -
Mo, 18.02. 1:00 - 0/8 0/8 - - -
So, 17.02. 19:00 9000 m 3/8 0/8 - - -
So, 17.02. 13:00 7800 m 1/8 0/8 - - -
So, 17.02. 7:00 8100 m 2/8 0/8 - - -
So, 17.02. 1:00 - 0/8 0/8 - - -
Sa, 16.02. 19:00 - 0/8 0/8 - - -
Ortszeit Bedeckungsgrad in Achtel und Wolkenuntergrenze
Mo, 18.02. 16:30 keine Wolken
Mo, 18.02. 16:20 keine Wolken
Mo, 18.02. 16:10 keine Wolken
Mo, 18.02. 16:00 2(7200m)
Mo, 18.02. 15:50 2(7200m)
Mo, 18.02. 15:40 4(7200m) 5(8100m) 5(9000m)
Mo, 18.02. 15:30 1(6900m) 4(9000m) 3(9000m)
Mo, 18.02. 15:00 2(6600m)
Mo, 18.02. 14:30 1(6300m)
Mo, 18.02. 14:00 keine Wolken
Mo, 18.02. 13:30 keine Wolken
Ortszeit Luftdruck NN (hPa) Tendenz (hPa in 3 Std.)
Mo, 18.02. 13:00 1019 - 1,2
Mo, 18.02. 7:00 1022 - 0,4
Mo, 18.02. 1:00 1023 - 0,3
So, 17.02. 19:00 1022 0,0
So, 17.02. 13:00 1023 - 0,8
So, 17.02. 7:00 1025 - 0,7
So, 17.02. 1:00 1027 - 0,5
Sa, 16.02. 19:00 1027 + 0,1
Ortszeit Luftdruck NN (hPa) Tendenz (hPa in 3 Std.)
Mo, 18.02. 16:30 1017 - 1,7
Mo, 18.02. 16:20 1017 keine Meldung
Mo, 18.02. 16:10 1017 keine Meldung
Mo, 18.02. 16:00 1017 - 1,7
Mo, 18.02. 15:50 1017 keine Meldung
Mo, 18.02. 15:40 1017 keine Meldung
Mo, 18.02. 15:30 1017 - 2,0
Mo, 18.02. 15:00 1017 - 2,1
Mo, 18.02. 14:30 1018 - 1,6
Mo, 18.02. 14:00 1018 - 1,5
Mo, 18.02. 13:30 1019 - 1,2
Ortszeit Schneehöhe (cm)
Mo, 18.02. 13:00 0
Mo, 18.02. 7:00 0
Mo, 18.02. 1:00 0
So, 17.02. 19:00 0
So, 17.02. 13:00 0
So, 17.02. 7:00 0
So, 17.02. 1:00 0
Sa, 16.02. 19:00 0
Ortszeit Schneehöhe (cm)
Mo, 18.02. 16:30 0
Mo, 18.02. 16:20 0
Mo, 18.02. 16:10 0
Mo, 18.02. 16:00 0
Mo, 18.02. 15:50 0
Mo, 18.02. 15:40 0
Mo, 18.02. 15:30 0
Mo, 18.02. 15:00 0
Mo, 18.02. 14:30 0
Mo, 18.02. 14:00 0
Mo, 18.02. 13:30 0
Link zu dieser Seite / Seite empfehlen

Das Wetter in ...